Time;durP1;ratioP1;P1;durP2;ratioP2;P2;SDS_P1;SDS_P2;PMS_P1;PMS_P2;Temp;Humidity;BMP_temperature;BMP_pressure;BME280_temperature;BME280_humidity;BME280_pressure;Samples;Min_cycle;Max_cycle;Signal;HPM_P1;HPM_P2
2021/01/30 00:00:14;;;;;;;3.83;1.30;;;21.80;38.90;;;;;;4933502;28;20047;-74
2021/01/30 00:02:36;;;;;;;4.22;1.38;;;21.80;39.00;;;;;;4933798;28;20097;-72
2021/01/30 00:04:58;;;;;;;4.78;1.52;;;21.90;39.10;;;;;;4938957;27;20545;-72
2021/01/30 00:07:19;;;;;;;5.85;1.40;;;21.90;38.30;;;;;;4953134;27;20514;-76
2021/01/30 00:09:40;;;;;;;5.88;1.50;;;21.80;38.30;;;;;;4953310;27;20065;-70
2021/01/30 00:12:02;;;;;;;6.85;1.60;;;21.80;38.70;;;;;;4953015;27;20047;-74
2021/01/30 00:14:34;;;;;;;3.42;1.30;;;21.80;38.40;;;;;;4952714;27;20047;-70
2021/01/30 00:16:56;;;;;;;7.50;1.70;;;21.80;38.20;;;;;;4953308;27;20122;-72
2021/01/30 00:19:18;;;;;;;3.95;1.25;;;21.70;38.00;;;;;;4953298;27;20053;-67
2021/01/30 00:21:40;;;;;;;6.05;1.58;;;21.60;38.80;;;;;;4953865;27;20269;-71
2021/01/30 00:24:01;;;;;;;9.35;2.00;;;21.60;38.60;;;;;;4953716;27;20043;-68
2021/01/30 00:26:23;;;;;;;5.50;1.60;;;21.60;38.40;;;;;;4955026;27;20050;-73
2021/01/30 00:28:44;;;;;;;9.57;2.40;;;21.60;39.10;;;;;;4954880;27;20297;-68
2021/01/30 00:31:20;;;;;;;6.68;2.33;;;21.60;38.40;;;;;;4946738;28;20404;-70
2021/01/30 00:33:41;;;;;;;7.13;1.85;;;21.50;38.50;;;;;;4926640;28;20059;-67
2021/01/30 00:36:03;;;;;;;6.13;1.88;;;21.50;38.80;;;;;;4935250;28;20436;-75
2021/01/30 00:38:24;;;;;;;9.00;2.25;;;21.40;39.10;;;;;;4953022;28;20047;-67
2021/01/30 00:40:45;;;;;;;5.53;1.65;;;21.40;38.90;;;;;;4952731;27;20050;-68
2021/01/30 00:43:07;;;;;;;7.82;2.08;;;21.40;39.10;;;;;;4952968;28;20450;-67
2021/01/30 00:45:29;;;;;;;5.78;1.75;;;21.30;39.00;;;;;;4953490;28;20092;-73
2021/01/30 00:47:51;;;;;;;5.43;2.03;;;21.30;39.90;;;;;;4953312;28;20051;-70
2021/01/30 00:50:13;;;;;;;7.43;2.05;;;21.40;39.80;;;;;;4953096;28;20048;-68
2021/01/30 00:52:36;;;;;;;3.35;1.35;;;21.40;39.60;;;;;;4952751;28;20058;-71
2021/01/30 00:54:58;;;;;;;5.75;1.52;;;21.40;39.90;;;;;;4952444;27;20058;-68
2021/01/30 00:57:20;;;;;;;6.88;1.77;;;21.50;39.90;;;;;;4952550;28;20058;-70
2021/01/30 00:59:41;;;;;;;6.30;1.70;;;21.50;39.40;;;;;;4952484;28;20047;-69
2021/01/30 01:02:03;;;;;;;4.47;1.60;;;21.50;39.60;;;;;;4952427;28;20051;-68
2021/01/30 01:04:25;;;;;;;4.80;2.00;;;21.50;39.50;;;;;;4952204;28;20094;-68
2021/01/30 01:06:47;;;;;;;4.85;2.47;;;21.50;39.50;;;;;;4952599;28;20050;-68
2021/01/30 01:09:10;;;;;;;6.93;2.25;;;21.40;39.40;;;;;;4952856;28;20442;-67
2021/01/30 01:11:32;;;;;;;7.40;1.85;;;21.40;39.50;;;;;;4953635;28;20058;-68
2021/01/30 01:13:54;;;;;;;3.92;1.92;;;21.30;39.90;;;;;;4952064;28;20319;-70
2021/01/30 01:16:15;;;;;;;8.35;1.70;;;21.30;40.00;;;;;;4953701;27;20065;-70
2021/01/30 01:18:37;;;;;;;9.80;2.20;;;21.30;39.80;;;;;;4954168;28;20137;-68
2021/01/30 01:20:58;;;;;;;6.10;1.70;;;21.30;39.90;;;;;;4954329;28;20047;-70
2021/01/30 01:23:20;;;;;;;11.55;2.30;;;21.30;40.00;;;;;;4954158;28;20051;-69
2021/01/30 01:25:41;;;;;;;5.75;2.10;;;21.30;40.10;;;;;;4954306;28;20442;-71
2021/01/30 01:28:03;;;;;;;7.88;1.80;;;21.30;40.10;;;;;;4952885;28;20047;-70
2021/01/30 01:30:25;;;;;;;5.55;1.52;;;21.30;40.10;;;;;;4933837;28;20055;-68
2021/01/30 01:32:47;;;;;;;6.57;1.88;;;21.30;40.50;;;;;;4932499;28;20047;-75
2021/01/30 01:35:17;;;;;;;3.95;1.50;;;21.30;40.40;;;;;;4932482;28;20100;-76
2021/01/30 01:37:38;;;;;;;7.93;1.48;;;21.30;40.30;;;;;;4932093;28;20043;-74
2021/01/30 01:39:59;;;;;;;7.47;1.83;;;21.30;40.50;;;;;;4934259;28;20051;-67
2021/01/30 01:42:24;;;;;;;6.13;1.92;;;21.40;40.30;;;;;;4935570;28;20447;-69
2021/01/30 01:44:47;;;;;;;12.20;2.33;;;21.40;40.30;;;;;;4936021;28;20078;-68
2021/01/30 01:47:16;;;;;;;9.00;2.30;;;21.30;40.20;;;;;;4936133;28;20050;-69
2021/01/30 01:49:41;;;;;;;7.55;2.45;;;21.30;40.20;;;;;;4936473;28;20046;-68
2021/01/30 01:52:14;;;;;;;12.60;2.30;;;21.30;40.70;;;;;;4935947;28;20050;-71
2021/01/30 01:54:39;;;;;;;6.95;2.15;;;21.30;40.50;;;;;;4935874;28;20104;-73
2021/01/30 01:57:11;;;;;;;7.05;2.17;;;21.30;40.90;;;;;;4936681;28;20047;-71
2021/01/30 01:59:33;;;;;;;4.63;1.52;;;21.30;41.10;;;;;;4936016;28;20073;-77
2021/01/30 02:01:55;;;;;;;8.50;2.30;;;21.40;41.00;;;;;;4935730;28;20043;-70
2021/01/30 02:04:19;;;;;;;7.70;1.88;;;21.40;40.70;;;;;;4935701;28;20090;-75
2021/01/30 02:06:45;;;;;;;8.07;1.70;;;21.40;40.50;;;;;;4935930;28;20225;-71
2021/01/30 02:09:23;;;;;;;9.18;1.85;;;21.40;40.90;;;;;;4936809;28;20077;-70
2021/01/30 02:12:14;;;;;;;10.52;2.63;;;21.40;40.80;;;;;;4936725;28;20039;-68
2021/01/30 02:14:40;;;;;;;5.03;2.17;;;21.40;40.80;;;;;;4914003;28;20059;-77
2021/01/30 02:17:39;;;;;;;6.20;2.17;;;21.50;41.10;;;;;;4936804;28;20059;-73
2021/01/30 02:20:30;;;;;;;7.05;1.80;;;21.40;40.90;;;;;;4935719;28;20127;-71
2021/01/30 02:23:41;;;;;;;10.88;2.78;;;21.40;40.90;;;;;;4936080;28;20044;-71
2021/01/30 02:26:40;;;;;;;8.38;2.00;;;21.40;41.20;;;;;;4862815;28;20049;-71
2021/01/30 02:29:01;;;;;;;12.00;2.20;;;21.30;41.20;;;;;;4946361;27;20048;-72
2021/01/30 02:32:05;;;;;;;5.05;1.90;;;21.30;41.20;;;;;;4946478;27;20126;-73
2021/01/30 02:35:15;;;;;;;5.93;1.42;;;21.40;41.60;;;;;;4935661;28;20126;-68
2021/01/30 02:37:51;;;;;;;6.20;1.40;;;21.40;41.60;;;;;;4935402;28;20066;-73
2021/01/30 02:40:18;;;;;;;9.43;2.50;;;21.40;41.30;;;;;;4935101;28;20389;-68
2021/01/30 02:42:53;;;;;;;9.05;2.70;;;21.40;41.30;;;;;;4935073;28;20066;-71
2021/01/30 02:45:22;;;;;;;7.50;2.22;;;21.40;41.30;;;;;;4935852;28;20052;-68
2021/01/30 02:47:53;;;;;;;6.47;2.20;;;21.50;41.30;;;;;;4935511;28;20044;-70
2021/01/30 02:50:23;;;;;;;7.80;3.00;;;21.50;41.40;;;;;;4934897;28;20508;-69
2021/01/30 02:52:48;;;;;;;10.48;2.30;;;21.40;41.50;;;;;;4934837;28;20450;-75
2021/01/30 02:55:14;;;;;;;13.52;2.78;;;21.40;41.50;;;;;;4935130;28;20424;-75
2021/01/30 02:57:37;;;;;;;8.90;2.00;;;21.50;41.50;;;;;;4935348;28;20462;-74
2021/01/30 03:00:01;;;;;;;6.85;1.55;;;21.40;41.50;;;;;;4936437;28;20059;-76
2021/01/30 03:02:25;;;;;;;5.53;1.65;;;21.50;41.80;;;;;;4936798;28;20035;-73
2021/01/30 03:04:53;;;;;;;8.77;2.15;;;21.50;41.60;;;;;;4940268;27;20068;-74
2021/01/30 03:07:27;;;;;;;5.78;1.80;;;21.50;41.40;;;;;;4956006;27;20096;-68
2021/01/30 03:10:00;;;;;;;6.50;1.83;;;21.60;41.40;;;;;;4954342;27;20043;-76
2021/01/30 03:13:03;;;;;;;6.32;1.83;;;21.60;41.60;;;;;;4953416;27;20047;-76
2021/01/30 03:15:34;;;;;;;7.03;1.92;;;21.70;41.50;;;;;;4929697;28;20052;-72
2021/01/30 03:17:59;;;;;;;5.60;1.95;;;21.70;41.40;;;;;;4934026;28;20406;-70
2021/01/30 03:20:21;;;;;;;7.57;1.85;;;21.70;41.50;;;;;;4934176;28;20176;-67
2021/01/30 03:22:43;;;;;;;9.23;1.77;;;21.60;41.50;;;;;;4934286;28;20043;-72
2021/01/30 03:25:06;;;;;;;9.10;1.58;;;21.60;41.50;;;;;;4946144;27;20057;-72
2021/01/30 03:27:30;;;;;;;4.47;1.88;;;21.60;41.60;;;;;;4953896;27;20043;-72
2021/01/30 03:29:53;;;;;;;4.03;1.10;;;21.60;41.70;;;;;;4953539;27;20047;-75
2021/01/30 03:32:15;;;;;;;3.95;1.33;;;21.60;41.70;;;;;;4937607;27;20051;-72
2021/01/30 03:34:36;;;;;;;7.13;1.40;;;21.60;41.50;;;;;;4933739;28;20040;-77
2021/01/30 03:36:58;;;;;;;3.65;2.00;;;21.60;41.60;;;;;;4933970;28;20043;-68
2021/01/30 03:39:19;;;;;;;6.28;1.63;;;21.60;41.70;;;;;;4933879;28;20047;-74
2021/01/30 03:41:42;;;;;;;8.00;2.10;;;21.60;41.60;;;;;;4933675;28;20047;-76
2021/01/30 03:44:04;;;;;;;4.90;1.45;;;21.60;41.70;;;;;;4933796;28;20047;-74
2021/01/30 03:46:26;;;;;;;4.93;1.25;;;21.70;41.70;;;;;;4934118;28;20040;-73
2021/01/30 03:48:47;;;;;;;4.65;1.30;;;21.70;41.70;;;;;;4933642;28;20066;-74
2021/01/30 03:51:09;;;;;;;2.10;1.27;;;21.70;41.70;;;;;;4916106;28;20048;-77
2021/01/30 03:53:30;;;;;;;6.50;1.60;;;21.70;41.60;;;;;;4934197;28;20040;-74
2021/01/30 03:55:52;;;;;;;4.10;1.30;;;21.70;41.50;;;;;;4934103;28;20049;-70
2021/01/30 03:58:13;;;;;;;5.35;1.40;;;21.70;41.60;;;;;;4933823;28;20419;-72
2021/01/30 04:00:35;;;;;;;4.47;1.25;;;21.70;41.70;;;;;;4934071;28;20054;-72
2021/01/30 04:02:56;;;;;;;6.55;1.42;;;21.70;41.60;;;;;;4932964;28;20048;-70
2021/01/30 04:05:22;;;;;;;3.38;1.23;;;21.70;41.70;;;;;;4941930;27;20130;-72
2021/01/30 04:07:45;;;;;;;4.20;1.50;;;21.70;41.80;;;;;;4953384;27;20047;-69
2021/01/30 04:10:08;;;;;;;4.47;1.27;;;21.70;41.70;;;;;;4952949;27;20468;-69
2021/01/30 04:12:29;;;;;;;4.60;1.40;;;21.70;41.70;;;;;;4952602;27;20079;-74
2021/01/30 04:14:52;;;;;;;5.35;1.23;;;21.80;41.70;;;;;;4952755;27;20059;-71
2021/01/30 04:17:13;;;;;;;2.38;1.05;;;21.80;41.80;;;;;;4952758;27;20039;-71
2021/01/30 04:19:36;;;;;;;3.20;1.27;;;21.80;41.60;;;;;;4952918;27;20039;-72
2021/01/30 04:21:58;;;;;;;4.88;1.35;;;21.80;41.50;;;;;;4952736;27;20399;-74
2021/01/30 04:24:19;;;;;;;5.95;1.67;;;21.80;41.80;;;;;;4952930;27;20051;-69
2021/01/30 04:26:41;;;;;;;5.40;1.33;;;21.70;41.80;;;;;;4952944;28;20095;-72
2021/01/30 04:29:03;;;;;;;4.43;1.55;;;21.70;41.80;;;;;;4952451;27;20464;-73
2021/01/30 04:31:24;;;;;;;5.22;0.93;;;21.70;41.80;;;;;;4943851;28;20043;-67
2021/01/30 04:33:48;;;;;;;4.55;1.45;;;21.70;41.80;;;;;;4933156;28;20679;-69
2021/01/30 04:36:10;;;;;;;3.03;1.33;;;21.80;41.90;;;;;;4932946;28;20594;-73
2021/01/30 04:38:31;;;;;;;3.15;1.30;;;21.80;41.80;;;;;;4933013;28;20062;-71
2021/01/30 04:41:28;;;;;;;3.05;0.98;;;21.70;41.70;;;;;;4934226;28;20054;-75
2021/01/30 04:44:04;;;;;;;3.05;1.35;;;21.70;42.00;;;;;;4934470;28;20047;-70
2021/01/30 04:47:01;;;;;;;4.25;1.73;;;21.70;42.10;;;;;;4934344;28;20059;-71
2021/01/30 04:49:32;;;;;;;3.60;1.23;;;21.70;42.00;;;;;;4934435;28;20499;-72
2021/01/30 04:51:54;;;;;;;;;;;21.70;42.50;;;;;;4933804;28;20512;-71
2021/01/30 04:54:34;;;;;;;3.67;1.02;;;21.70;41.90;;;;;;4932313;28;19920;-72
2021/01/30 04:56:59;;;;;;;5.88;1.50;;;21.70;42.00;;;;;;4932625;28;20422;-74
2021/01/30 04:59:45;;;;;;;4.25;1.40;;;21.60;42.10;;;;;;4932699;28;20100;-72
2021/01/30 05:02:12;;;;;;;4.20;1.17;;;21.70;42.30;;;;;;4932236;28;20476;-71
2021/01/30 05:04:41;;;;;;;1.95;0.93;;;21.70;42.20;;;;;;4934556;28;20123;-72
2021/01/30 05:07:17;;;;;;;6.70;1.02;;;21.60;42.10;;;;;;4952615;28;20062;-72
2021/01/30 05:09:59;;;;;;;1.55;1.05;;;21.60;42.30;;;;;;4952482;28;20039;-74
2021/01/30 05:12:34;;;;;;;5.13;1.45;;;21.60;42.30;;;;;;4953047;28;20053;-74
2021/01/30 05:15:07;;;;;;;4.03;1.10;;;21.50;42.40;;;;;;4954354;27;20044;-70
2021/01/30 05:17:39;;;;;;;3.03;0.95;;;21.40;42.60;;;;;;4956672;27;20556;-68
2021/01/30 05:20:07;;;;;;;1.88;0.93;;;21.40;42.70;;;;;;4956934;27;20047;-71
2021/01/30 05:22:40;;;;;;;1.60;0.90;;;21.30;42.60;;;;;;4957111;27;20039;-69
2021/01/30 05:25:04;;;;;;;3.67;1.45;;;21.30;42.70;;;;;;4957125;27;20043;-68
2021/01/30 05:27:32;;;;;;;2.42;0.95;;;21.30;42.90;;;;;;4957427;27;20039;-73
2021/01/30 05:30:14;;;;;;;2.47;1.00;;;21.30;43.00;;;;;;4937070;28;20040;-72
2021/01/30 05:33:04;;;;;;;0.95;0.85;;;21.30;42.80;;;;;;4938455;27;20077;-71
2021/01/30 05:35:35;;;;;;;1.10;0.60;;;21.30;43.00;;;;;;4938447;28;20043;-73
2021/01/30 05:38:14;;;;;;;2.00;0.93;;;21.30;42.90;;;;;;4938373;28;20048;-69
2021/01/30 05:40:44;;;;;;;1.90;0.98;;;21.30;42.90;;;;;;4938239;28;20074;-73
2021/01/30 05:43:17;;;;;;;3.30;1.08;;;21.30;42.80;;;;;;4937876;28;20487;-75
2021/01/30 05:45:47;;;;;;;1.38;0.80;;;21.20;43.10;;;;;;4937144;28;20423;-70
2021/01/30 05:48:17;;;;;;;2.92;1.45;;;21.20;43.30;;;;;;4937328;28;20104;-69
2021/01/30 05:50:58;;;;;;;3.50;1.30;;;21.30;43.00;;;;;;4936437;28;20047;-74
2021/01/30 05:53:25;;;;;;;0.95;0.85;;;21.20;42.90;;;;;;4936625;28;20055;-73
2021/01/30 05:55:46;;;;;;;2.15;0.93;;;21.20;43.30;;;;;;4936161;28;20534;-72
2021/01/30 05:58:14;;;;;;;1.77;0.82;;;21.30;43.20;;;;;;4936042;28;20056;-68
2021/01/30 06:00:36;;;;;;;0.85;0.82;;;21.30;43.00;;;;;;4935876;28;20108;-70
2021/01/30 06:03:05;;;;;;;2.35;0.70;;;21.30;42.70;;;;;;4936318;28;20066;-75
2021/01/30 06:05:34;;;;;;;1.25;0.80;;;21.30;43.00;;;;;;4945882;27;20127;-68
2021/01/30 06:08:09;;;;;;;1.55;0.70;;;21.40;43.00;;;;;;4956033;27;20047;-74
2021/01/30 06:10:32;;;;;;;0.60;0.60;;;21.40;43.50;;;;;;4955568;27;20054;-73
2021/01/30 06:13:23;;;;;;;0.65;0.50;;;21.40;42.80;;;;;;4955502;27;20043;-73
2021/01/30 06:15:57;;;;;;;1.38;0.80;;;21.50;42.70;;;;;;4943289;27;20063;-72
2021/01/30 06:18:35;;;;;;;1.25;0.80;;;21.50;43.30;;;;;;4937147;27;20110;-72
2021/01/30 06:20:57;;;;;;;0.93;0.52;;;21.50;42.70;;;;;;4955668;27;20688;-71
2021/01/30 06:23:19;;;;;;;2.05;0.73;;;21.50;42.90;;;;;;4956071;27;20055;-71
2021/01/30 06:25:42;;;;;;;1.45;0.70;;;21.40;42.80;;;;;;4952365;27;20051;-74
2021/01/30 06:28:23;;;;;;;1.23;0.80;;;21.40;42.90;;;;;;4957121;27;20035;-72
2021/01/30 06:30:46;;;;;;;1.85;0.50;;;21.40;43.00;;;;;;4953549;27;20511;-68
2021/01/30 06:33:26;;;;;;;0.60;0.60;;;21.30;43.30;;;;;;4937219;28;20048;-74
2021/01/30 06:35:48;;;;;;;1.13;0.70;;;21.30;43.30;;;;;;4935580;28;20453;-70
2021/01/30 06:38:18;;;;;;;0.60;0.60;;;21.30;43.40;;;;;;4935659;28;20313;-74
2021/01/30 06:40:58;;;;;;;0.65;0.63;;;21.30;43.40;;;;;;4917018;28;20052;-72
2021/01/30 06:43:27;;;;;;;1.58;1.10;;;21.40;43.30;;;;;;4935704;28;20047;-71
2021/01/30 06:45:49;;;;;;;0.32;0.32;;;21.40;43.20;;;;;;4916516;28;20097;-67
2021/01/30 06:48:53;;;;;;;0.70;0.50;;;21.30;43.30;;;;;;4935289;28;20087;-75
2021/01/30 06:51:28;;;;;;;1.17;0.52;;;21.30;43.40;;;;;;4854166;28;20041;-68
2021/01/30 06:53:51;;;;;;;0.77;0.52;;;21.30;43.30;;;;;;4853934;28;20081;-76
2021/01/30 06:56:27;;;;;;;0.60;0.50;;;21.40;43.30;;;;;;4895528;28;20180;-68
2021/01/30 06:58:50;;;;;;;0.45;0.45;;;21.40;43.40;;;;;;4935167;28;20092;-71
2021/01/30 07:01:21;;;;;;;0.70;0.57;;;21.40;43.40;;;;;;4934969;28;20043;-75
2021/01/30 07:03:57;;;;;;;;;;;21.30;43.30;;;;;;4935807;28;20043;-69
2021/01/30 07:06:24;;;;;;;1.25;0.60;;;21.40;43.40;;;;;;4951460;27;19937;-69
2021/01/30 07:09:10;;;;;;;0.80;0.80;;;21.30;43.50;;;;;;4954837;27;20047;-74
2021/01/30 07:11:43;;;;;;;0.47;0.45;;;21.40;43.50;;;;;;4954556;27;20540;-77
2021/01/30 07:14:23;;;;;;;8.95;0.82;;;21.30;43.60;;;;;;4954615;27;20047;-71
2021/01/30 07:17:22;;;;;;;0.95;0.60;;;21.30;43.60;;;;;;4955530;27;20073;-72
2021/01/30 07:19:54;;;;;;;0.50;0.50;;;21.30;43.70;;;;;;4903568;27;20054;-68
2021/01/30 07:22:22;;;;;;;0.50;0.50;;;21.30;43.60;;;;;;4955010;27;20047;-72
2021/01/30 07:24:52;;;;;;;0.98;0.30;;;21.30;43.80;;;;;;4955209;27;20234;-71
2021/01/30 07:27:30;;;;;;;;;;;21.30;43.80;;;;;;4956464;27;20051;-69
2021/01/30 07:30:02;;;;;;;0.88;0.60;;;21.30;43.80;;;;;;4934360;28;20157;-72
2021/01/30 07:32:50;;;;;;;0.50;0.47;;;21.30;43.90;;;;;;4934917;27;20052;-71
2021/01/30 07:35:42;;;;;;;1.58;0.50;;;21.30;43.90;;;;;;4916484;28;20412;-74
2021/01/30 07:38:19;;;;;;;0.82;0.50;;;21.20;44.00;;;;;;4933620;28;20044;-75
2021/01/30 07:41:05;;;;;;;0.40;0.40;;;21.20;44.10;;;;;;4934050;28;20047;-69
2021/01/30 07:43:39;;;;;;;0.28;0.28;;;21.20;44.10;;;;;;4934115;28;20546;-70
2021/01/30 07:46:38;;;;;;;1.05;0.50;;;21.20;44.10;;;;;;4933761;28;20050;-78
2021/01/30 07:49:23;;;;;;;0.90;0.60;;;21.30;44.10;;;;;;4929262;28;20044;-73
2021/01/30 07:52:01;;;;;;;0.43;0.40;;;21.30;44.30;;;;;;4934344;28;20105;-70
2021/01/30 07:54:22;;;;;;;2.42;0.40;;;21.30;44.30;;;;;;4915937;28;20056;-76
2021/01/30 07:57:09;;;;;;;0.60;0.50;;;21.30;44.10;;;;;;4915706;28;20447;-73
2021/01/30 07:59:57;;;;;;;0.47;0.40;;;21.30;44.20;;;;;;4916026;28;20046;-73
2021/01/30 08:02:24;;;;;;;0.57;0.40;;;21.30;44.20;;;;;;4933836;28;20450;-71
2021/01/30 08:05:07;;;;;;;1.00;0.60;;;21.40;44.20;;;;;;4940196;27;20039;-71
2021/01/30 08:07:40;;;;;;;0.45;0.43;;;21.40;44.30;;;;;;4949346;27;20044;-72
2021/01/30 08:10:15;;;;;;;0.40;0.40;;;21.50;44.20;;;;;;4943231;27;20039;-69
2021/01/30 08:13:00;;;;;;;0.70;0.43;;;21.60;44.00;;;;;;4942351;27;20048;-74
2021/01/30 08:15:39;;;;;;;0.52;0.50;;;21.70;43.90;;;;;;4941849;27;20055;-68
2021/01/30 08:18:26;;;;;;;0.67;0.50;;;21.90;43.70;;;;;;4941458;27;20039;-73
2021/01/30 08:21:14;;;;;;;1.55;0.40;;;22.00;43.50;;;;;;4942070;27;20058;-71
2021/01/30 08:23:38;;;;;;;0.73;0.60;;;22.10;43.40;;;;;;4925055;27;20047;-69
2021/01/30 08:26:25;;;;;;;0.35;0.30;;;22.10;43.20;;;;;;4943248;27;20039;-69
2021/01/30 08:29:06;;;;;;;0.90;0.47;;;22.30;43.10;;;;;;4943032;27;20057;-70
2021/01/30 08:31:40;;;;;;;0.40;0.40;;;22.30;43.00;;;;;;4943422;27;20040;-71
2021/01/30 08:34:10;;;;;;;0.30;0.30;;;22.40;43.00;;;;;;4941439;28;20105;-73
2021/01/30 08:36:38;;;;;;;0.40;0.40;;;22.50;43.00;;;;;;4940454;27;20059;-70
2021/01/30 08:39:26;;;;;;;0.60;0.60;;;22.50;43.50;;;;;;4941405;28;20039;-74
2021/01/30 08:41:52;;;;;;;0.30;0.30;;;22.60;42.80;;;;;;4931466;28;20039;-72
2021/01/30 08:44:29;;;;;;;0.57;0.50;;;22.60;42.80;;;;;;4940317;28;20450;-68
2021/01/30 08:47:15;;;;;;;0.63;0.40;;;22.70;42.70;;;;;;4940150;28;20116;-69
2021/01/30 08:49:37;;;;;;;0.40;0.40;;;22.70;42.70;;;;;;4943281;27;20510;-69
2021/01/30 08:52:38;;;;;;;0.43;0.40;;;22.70;42.60;;;;;;4946930;27;20128;-74
2021/01/30 08:55:29;;;;;;;0.47;0.47;;;22.80;42.60;;;;;;4870070;27;20047;-70
2021/01/30 08:57:51;;;;;;;2.20;0.40;;;22.90;42.50;;;;;;4946814;27;20039;-71
2021/01/30 09:00:36;;;;;;;0.40;0.40;;;22.90;42.50;;;;;;4952132;27;20067;-70
2021/01/30 09:03:06;;;;;;;0.43;0.40;;;22.90;42.50;;;;;;4930759;27;20825;-70
2021/01/30 09:05:33;;;;;;;0.38;0.38;;;22.90;42.50;;;;;;4954465;27;20046;-68
2021/01/30 09:07:57;;;;;;;0.40;0.30;;;23.00;42.50;;;;;;4951462;27;20100;-74
2021/01/30 09:10:22;;;;;;;1.13;0.60;;;23.00;42.50;;;;;;4961923;27;20054;-68
2021/01/30 09:12:56;;;;;;;0.30;0.30;;;23.00;42.40;;;;;;4966505;27;20079;-70
2021/01/30 09:15:40;;;;;;;0.70;0.50;;;23.10;42.40;;;;;;4931334;28;20047;-68
2021/01/30 09:18:19;;;;;;;0.40;0.40;;;23.10;42.30;;;;;;4931225;28;20043;-71
2021/01/30 09:21:06;;;;;;;0.70;0.70;;;23.20;42.40;;;;;;4931321;28;20058;-70
2021/01/30 09:23:33;;;;;;;0.40;0.40;;;23.20;42.60;;;;;;4968301;27;20433;-72
2021/01/30 09:26:25;;;;;;;1.20;0.50;;;23.30;42.40;;;;;;4937160;27;20043;-69
2021/01/30 09:28:58;;;;;;;0.43;0.43;;;23.30;42.50;;;;;;4942511;27;20310;-69
2021/01/30 09:31:20;;;;;;;0.57;0.50;;;23.30;42.50;;;;;;4944916;27;20046;-72
2021/01/30 09:33:58;;;;;;;0.57;0.43;;;23.30;42.40;;;;;;4940607;27;20332;-70
2021/01/30 09:36:30;;;;;;;0.93;0.60;;;23.40;42.40;;;;;;4940473;27;20052;-67
2021/01/30 09:38:59;;;;;;;0.73;0.52;;;23.40;42.30;;;;;;4937788;27;20047;-68
2021/01/30 10:08:51;;;;;;;0.35;0.32;;;20.00;60.80;;;;;;4973833;27;20912;-78
2021/01/30 10:11:21;;;;;;;0.30;0.30;;;19.50;57.50;;;;;;4951801;27;20046;-77
2021/01/30 10:14:44;;;;;;;0.20;0.20;;;19.50;56.90;;;;;;4975393;27;20053;-77
2021/01/30 10:17:42;;;;;;;0.20;0.20;;;20.00;56.70;;;;;;4977281;27;20038;-77
2021/01/30 10:20:42;;;;;;;0.40;0.40;;;20.50;55.40;;;;;;4970593;27;20067;-83
2021/01/30 10:23:11;;;;;;;0.40;0.32;;;20.90;54.30;;;;;;4961161;27;20048;-81
2021/01/30 10:25:38;;;;;;;0.20;0.20;;;21.20;53.40;;;;;;4946370;27;20134;-81
2021/01/30 10:28:13;;;;;;;0.40;0.32;;;21.30;52.00;;;;;;4956925;27;20049;-84
2021/01/30 10:30:39;;;;;;;0.40;0.22;;;21.50;53.80;;;;;;4951018;27;20050;-81
2021/01/30 10:33:23;;;;;;;4.38;0.63;;;21.70;51.80;;;;;;4970753;27;20039;-82
2021/01/30 10:35:49;;;;;;;0.20;0.20;;;21.80;52.00;;;;;;4955792;27;20048;-79
2021/01/30 10:38:17;;;;;;;0.28;0.28;;;21.80;51.10;;;;;;4954256;27;20050;-79
2021/01/30 10:40:55;;;;;;;1.45;0.95;;;21.90;51.10;;;;;;4967753;27;20130;-79
2021/01/30 10:43:36;;;;;;;0.40;0.40;;;22.00;50.60;;;;;;4871408;27;376296;-84
2021/01/30 10:48:00;;;;;;;1.73;0.57;;;22.20;50.80;;;;;;4095267;28;20132;-84
2021/01/30 10:50:54;;;;;;;0.30;0.30;;;22.30;50.20;;;;;;4131185;28;20050;-83
2021/01/30 10:53:35;;;;;;;0.47;0.47;;;22.20;50.00;;;;;;4128837;28;20341;-80
2021/01/30 10:55:38;;;;;;;0.80;0.50;;;22.50;50.20;;;;;;4124535;28;20082;-81
2021/01/30 11:01:25;;;;;;;0.30;0.30;;;22.30;50.40;;;;;;4120436;28;20088;-84
2021/01/30 11:04:00;;;;;;;0.47;0.47;;;22.60;50.40;;;;;;4123750;28;20054;-87
2021/01/30 11:14:38;;;;;;;0.60;0.55;;;22.80;48.20;;;;;;4279115;27;20166;-77
2021/01/30 11:16:41;;;;;;;0.40;0.30;;;23.10;46.90;;;;;;4240981;27;20141;-74
2021/01/30 11:22:18;;;;;;;0.35;0.35;;;24.20;47.30;;;;;;4277142;27;20183;-74
2021/01/30 11:24:35;;;;;;;0.40;0.40;;;23.90;45.10;;;;;;4259553;27;20122;-74
2021/01/30 11:26:39;;;;;;;0.70;0.70;;;23.80;44.80;;;;;;4259466;27;20478;-74
2021/01/30 11:28:41;;;;;;;0.43;0.43;;;23.80;45.00;;;;;;4259420;27;20093;-75
2021/01/30 11:30:44;;;;;;;0.40;0.40;;;23.80;44.90;;;;;;4255562;27;20067;-75
2021/01/30 11:33:01;;;;;;;0.50;0.22;;;23.90;44.50;;;;;;4245285;27;20121;-77
2021/01/30 11:35:04;;;;;;;0.20;0.20;;;24.00;44.20;;;;;;4255735;27;20046;-74
2021/01/30 11:37:06;;;;;;;0.60;0.60;;;24.10;43.90;;;;;;4259295;27;20460;-73
2021/01/30 11:39:08;;;;;;;0.20;0.20;;;24.10;44.30;;;;;;4259043;27;20051;-73
2021/01/30 11:41:10;;;;;;;0.28;0.28;;;24.10;43.50;;;;;;4259407;27;20470;-73
2021/01/30 11:43:13;;;;;;;1.08;0.50;;;24.20;43.40;;;;;;4259440;27;20440;-73
2021/01/30 11:45:16;;;;;;;0.30;0.30;;;24.30;43.40;;;;;;4258895;27;20096;-73
2021/01/30 11:47:18;;;;;;;1.65;0.32;;;24.40;43.00;;;;;;4259017;27;20047;-73
2021/01/30 11:49:20;;;;;;;0.80;0.47;;;24.40;42.70;;;;;;4228186;28;20054;-72
2021/01/30 11:51:28;;;;;;;1.00;0.50;;;24.50;42.70;;;;;;4242071;27;20073;-72
2021/01/30 11:53:31;;;;;;;1.38;1.13;;;24.50;42.40;;;;;;4242303;27;20547;-73
2021/01/30 11:55:33;;;;;;;0.95;0.40;;;24.50;42.30;;;;;;4241762;28;20048;-72
2021/01/30 11:57:34;;;;;;;0.75;0.75;;;24.60;42.20;;;;;;4242225;27;20476;-72
2021/01/30 11:59:36;;;;;;;0.95;0.95;;;24.60;42.20;;;;;;4241907;28;20051;-73
2021/01/30 12:01:38;;;;;;;1.20;0.88;;;24.60;41.90;;;;;;4244434;27;20054;-72
2021/01/30 12:03:40;;;;;;;1.23;0.40;;;24.60;41.80;;;;;;4249880;27;20043;-72
2021/01/30 12:05:41;;;;;;;0.40;0.40;;;24.60;42.00;;;;;;4248361;27;20051;-73
2021/01/30 12:07:42;;;;;;;0.30;0.30;;;24.60;41.90;;;;;;4250001;27;20092;-73
2021/01/30 12:09:44;;;;;;;1.08;0.55;;;24.60;41.50;;;;;;4249662;27;20043;-73
2021/01/30 12:11:45;;;;;;;0.68;0.68;;;24.60;41.80;;;;;;4249872;27;20047;-73
2021/01/30 12:13:47;;;;;;;0.90;0.85;;;24.70;41.70;;;;;;4249684;27;20410;-72
2021/01/30 12:15:49;;;;;;;0.60;0.60;;;24.70;41.50;;;;;;4249631;27;20046;-72
2021/01/30 12:17:51;;;;;;;1.48;0.40;;;24.80;41.70;;;;;;4252390;27;20124;-73
2021/01/30 12:19:53;;;;;;;0.47;0.47;;;24.60;42.10;;;;;;4253799;27;20294;-72
2021/01/30 12:21:54;;;;;;;0.47;0.47;;;24.80;41.90;;;;;;4249587;27;20047;-73
2021/01/30 12:23:56;;;;;;;0.77;0.43;;;24.80;41.60;;;;;;4249341;27;20070;-73
2021/01/30 12:25:59;;;;;;;1.55;0.82;;;24.90;41.80;;;;;;4251039;27;20039;-74
2021/01/30 12:28:03;;;;;;;1.10;1.00;;;24.90;41.50;;;;;;4253067;27;20054;-73
2021/01/30 12:30:05;;;;;;;0.60;0.60;;;24.80;41.30;;;;;;4249947;27;20047;-73
2021/01/30 12:32:07;;;;;;;0.63;0.60;;;24.90;41.50;;;;;;4246254;27;20054;-73
2021/01/30 12:34:08;;;;;;;0.35;0.35;;;24.90;41.20;;;;;;4230632;27;20484;-73
2021/01/30 12:36:10;;;;;;;0.82;0.50;;;24.90;41.40;;;;;;4230448;28;20047;-73
2021/01/30 12:38:12;;;;;;;0.68;0.50;;;24.80;41.80;;;;;;4230436;28;20047;-73
2021/01/30 12:40:15;;;;;;;0.65;0.40;;;24.80;41.60;;;;;;4230226;28;20512;-73
2021/01/30 12:42:17;;;;;;;0.20;0.20;;;24.80;41.30;;;;;;4238418;27;20059;-73
2021/01/30 12:44:22;;;;;;;5.88;0.82;;;24.80;41.80;;;;;;4245363;27;20077;-73
2021/01/30 12:46:23;;;;;;;4.50;0.70;;;24.80;42.30;;;;;;4246993;27;20050;-73
2021/01/30 12:48:27;;;;;;;0.22;0.22;;;24.80;42.70;;;;;;4246773;27;20035;-73
2021/01/30 12:50:31;;;;;;;0.40;0.38;;;24.90;41.70;;;;;;4242891;27;20047;-73
2021/01/30 12:52:33;;;;;;;0.60;0.55;;;24.80;41.30;;;;;;4235511;27;20086;-73
2021/01/30 12:54:35;;;;;;;1.85;0.82;;;24.80;41.70;;;;;;4229832;28;20109;-74
2021/01/30 12:56:36;;;;;;;3.50;0.82;;;24.80;41.60;;;;;;4232738;27;20495;-73
2021/01/30 12:58:38;;;;;;;0.70;0.68;;;24.80;40.90;;;;;;4241593;27;20044;-73
2021/01/30 13:00:39;;;;;;;2.45;1.25;;;24.80;40.40;;;;;;4238971;27;20040;-73
2021/01/30 13:02:41;;;;;;;0.60;0.43;;;24.70;41.00;;;;;;4259062;27;20095;-73
2021/01/30 13:04:43;;;;;;;0.63;0.40;;;24.80;41.60;;;;;;4224756;28;20079;-73
2021/01/30 13:06:45;;;;;;;0.38;0.38;;;24.80;41.20;;;;;;4229834;28;20055;-73
2021/01/30 13:08:47;;;;;;;0.22;0.22;;;24.80;41.30;;;;;;4229551;28;20047;-73
2021/01/30 13:10:49;;;;;;;0.52;0.52;;;24.80;40.70;;;;;;4230542;27;20252;-74
2021/01/30 13:12:50;;;;;;;2.53;0.65;;;24.90;40.60;;;;;;4230248;27;20047;-74
2021/01/30 13:14:52;;;;;;;1.23;0.60;;;24.70;40.60;;;;;;4229690;27;20459;-73
2021/01/30 13:16:53;;;;;;;1.55;0.82;;;24.60;40.80;;;;;;4223211;27;20563;-73
2021/01/30 13:18:55;;;;;;;0.75;0.75;;;24.70;41.00;;;;;;4263380;27;20399;-74
2021/01/30 13:20:57;;;;;;;1.67;0.40;;;24.60;40.60;;;;;;4228882;28;20104;-72
2021/01/30 13:22:58;;;;;;;1.65;0.73;;;24.60;41.10;;;;;;4229636;28;20411;-74